Paris-Orly Airport

LFPO · Essonne, Île-de-France, 法国

罗盘
风向 的 风向 050° Paris-Orly Airport 2/20
风: 10 kt, 3 beaufort

8 kt

5 kt
改变
0 1.000 2.000 3.000 4.000 5.000
BKN 1.500 ft
METAR LFPO 031200Z 05010KT 9999 BKN015 04/01 Q1015 NOSIG

METAR Paris-Orly Airport - LFPO/ORY

Paris-Orly Airport是,法国中的大型机场。 该机场有3条跑道: 2/20, 6/24 和 7/25. 该领域的国际民航组织标志是LFPO 它的国际航空运输协会代码是ORY.

这份报告是针对2022年12月3日 13:00, 当地时间在Paris-Orly Airport进行的。

机场观察

风向为050°,速度为10 kt。

可见度为10 km 或者更多。

有碎云在1.500 ft的高度。 破损或更高的上限为1.500 ft。

温度为4 °C,阵风为-2 °C。 露点为1 °C,相对湿度为81%。 海平面上的气压为1015 hPa (QNH)。

白天

今天,太阳从08:24升起,在16:56降落。 这适用于Paris-Orly Airport,世界夏令时可能有所不同。 当地时间与世界标准时间之间的时差为+1 小时。 当前,没有夏令时有效。

公司介绍

在这个机场,你可以找到飞行俱乐部。 本场上唯一已知的公司是France DC3。

体会

到Vliegles.nl去找飞行课程,跳伞和其他飞行体验。 浏览页面,了解Paris-Orly Airport附近所有可用的活动。 你也可以使用搜索功能来寻找你所在地附近的特定飞行课程、跳伞或其他飞行体验。

跑道

Id 标题 侧风 逆风 侧风 %
2/20 018°-198° 5 kt 8 kt 53 %
6/24 062°-242° 2 kt 10 kt 21 %
7/25 074°-254° 4 kt 9 kt 41 %

逆风成分最大的方向会被突出显示,并用于横风计算。 这并不一定意味着这个方向在使用。

乌云

1.500 ft BKN 碎云

温度 & 天气

温度 4 °C
露点 1 °C
相对湿度 81%
风寒 -2 °C
Kp-index 0 (0-9)

白天

日出
08:24
中午
12:40
日落
16:56 (3:33)

小工具

你想在你的网站上有一个关于Paris-Orly Airport的当前航空天气(METAR)的小部件吗?

显示HTML代码

我们和第三方通过cookies跟踪您在我们网站上的互联网行为。如果你继续,我们认为你同意我们的饼干政策